createdAt,value
2023-02-27T00:01:35.563Z,2.58
2023-02-27T00:04:03.821Z,2.75
2023-02-27T00:06:32.007Z,2.63
2023-02-27T00:09:00.284Z,2.77
2023-02-27T00:11:29.043Z,2.74
2023-02-27T00:13:57.545Z,2.75
2023-02-27T00:16:27.013Z,2.57
2023-02-27T00:18:57.010Z,2.46
2023-02-27T00:21:25.706Z,2.49
2023-02-27T00:23:53.961Z,2.52
2023-02-27T00:26:23.314Z,2.45
2023-02-27T00:28:51.363Z,2.29
2023-02-27T00:31:19.539Z,2.42
2023-02-27T00:33:48.961Z,2.42
2023-02-27T00:36:17.098Z,2.50
2023-02-27T00:38:45.150Z,2.54
2023-02-27T00:41:13.208Z,2.73
2023-02-27T00:43:41.399Z,2.62
2023-02-27T00:46:11.871Z,2.63
2023-02-27T00:48:39.918Z,2.54
2023-02-27T00:51:11.122Z,2.43
2023-02-27T00:53:39.281Z,2.46
2023-02-27T00:56:08.588Z,2.41
2023-02-27T00:58:36.569Z,2.24
2023-02-27T01:01:04.726Z,2.44
2023-02-27T01:03:32.723Z,2.35
2023-02-27T01:06:00.872Z,2.28
2023-02-27T01:08:30.438Z,2.41
2023-02-27T01:10:58.717Z,2.53
2023-02-27T01:13:26.899Z,2.38
2023-02-27T01:15:54.949Z,2.41
2023-02-27T01:18:23.043Z,2.34
2023-02-27T01:20:54.490Z,2.30
2023-02-27T01:23:23.695Z,2.20
2023-02-27T01:25:53.065Z,2.35
2023-02-27T01:28:21.223Z,2.26
2023-02-27T01:30:49.671Z,2.26
2023-02-27T01:33:17.687Z,2.18
2023-02-27T01:35:45.860Z,2.24
2023-02-27T01:38:13.941Z,2.24
2023-02-27T01:40:43.610Z,2.30
2023-02-27T01:43:17.549Z,2.28
2023-02-27T01:45:48.707Z,2.33
2023-02-27T01:48:20.109Z,2.17
2023-02-27T01:50:53.837Z,2.36
2023-02-27T01:53:25.826Z,2.14
2023-02-27T01:55:57.107Z,2.16
2023-02-27T01:58:27.775Z,2.33
2023-02-27T02:00:56.798Z,2.35
2023-02-27T02:03:32.141Z,2.23
2023-02-27T02:06:03.263Z,2.01
2023-02-27T02:08:36.652Z,2.10
2023-02-27T02:11:06.803Z,2.20
2023-02-27T02:13:37.919Z,2.25
2023-02-27T02:16:28.598Z,2.17
2023-02-27T02:19:07.276Z,2.28
2023-02-27T02:22:19.840Z,2.09
2023-02-27T02:25:35.732Z,2.10
2023-02-27T02:28:21.111Z,2.01
2023-02-27T02:31:38.427Z,2.07
2023-02-27T02:34:35.735Z,2.08
2023-02-27T02:37:51.707Z,2.03
2023-02-27T02:40:31.768Z,2.05
2023-02-27T02:43:11.114Z,1.99
2023-02-27T02:45:49.489Z,2.02
2023-02-27T02:48:26.552Z,2.08
2023-02-27T02:51:02.708Z,2.13
2023-02-27T02:53:38.153Z,1.90
2023-02-27T02:56:16.814Z,1.98
2023-02-27T02:58:50.498Z,1.99
2023-02-27T03:01:26.114Z,1.90
2023-02-27T03:04:01.037Z,2.01
2023-02-27T03:06:33.614Z,2.09
2023-02-27T03:09:09.169Z,2.13
2023-02-27T03:11:44.849Z,2.08
2023-02-27T03:14:19.568Z,2.13
2023-02-27T03:16:53.185Z,2.01
2023-02-27T03:19:26.654Z,1.92
2023-02-27T03:22:05.287Z,2.06
2023-02-27T03:24:39.753Z,2.13
2023-02-27T03:27:10.580Z,2.14
2023-02-27T03:29:44.947Z,1.98
2023-02-27T03:32:18.677Z,2.00
2023-02-27T03:34:48.070Z,2.01
2023-02-27T03:37:30.052Z,2.06
2023-02-27T03:40:07.835Z,2.12
2023-02-27T03:42:43.222Z,2.07
2023-02-27T03:45:25.424Z,2.03
2023-02-27T03:47:54.181Z,1.95
2023-02-27T03:50:23.157Z,1.99
2023-02-27T03:52:51.922Z,1.95
2023-02-27T03:55:26.078Z,1.99
2023-02-27T03:57:56.478Z,2.08
2023-02-27T04:00:27.454Z,2.05
2023-02-27T04:03:00.561Z,2.01
2023-02-27T04:05:30.723Z,1.98
2023-02-27T04:08:40.650Z,1.90
2023-02-27T04:11:41.414Z,1.74
2023-02-27T04:14:36.322Z,1.93
2023-02-27T04:17:22.924Z,1.89
2023-02-27T04:20:25.370Z,1.84
2023-02-27T04:22:59.109Z,1.80
2023-02-27T04:25:52.338Z,1.79
2023-02-27T04:28:29.062Z,1.79
2023-02-27T04:31:12.479Z,1.87
2023-02-27T04:33:47.204Z,1.83
2023-02-27T04:36:24.238Z,1.81
2023-02-27T04:39:00.388Z,1.88
2023-02-27T04:41:35.495Z,1.92
2023-02-27T04:44:06.543Z,1.92
2023-02-27T04:46:40.414Z,2.04
2023-02-27T04:49:14.256Z,1.97
2023-02-27T04:51:52.236Z,1.96
2023-02-27T04:54:27.810Z,1.92
2023-02-27T04:57:02.141Z,1.95
2023-02-27T04:59:36.404Z,1.89
2023-02-27T05:02:14.322Z,1.84
2023-02-27T05:04:45.947Z,1.77
2023-02-27T05:07:18.834Z,1.71
2023-02-27T05:09:55.276Z,1.67
2023-02-27T05:12:30.469Z,1.68
2023-02-27T05:15:04.547Z,1.73
2023-02-27T05:17:39.138Z,1.60
2023-02-27T05:20:09.311Z,1.74
2023-02-27T05:22:46.839Z,1.85
2023-02-27T05:25:24.627Z,1.88
2023-02-27T05:27:59.604Z,1.91
2023-02-27T05:30:36.442Z,1.91
2023-02-27T05:33:11.419Z,1.89
2023-02-27T05:36:12.032Z,2.01
2023-02-27T05:39:09.797Z,1.99
2023-02-27T05:41:43.172Z,2.03
2023-02-27T05:44:15.789Z,1.93
2023-02-27T05:46:49.211Z,1.90
2023-02-27T05:49:24.741Z,1.92
2023-02-27T05:51:57.158Z,1.99
2023-02-27T05:54:34.918Z,2.02
2023-02-27T05:57:08.530Z,2.03
2023-02-27T05:59:43.576Z,2.03
2023-02-27T06:02:12.949Z,1.85
2023-02-27T06:04:42.706Z,1.88
2023-02-27T06:07:10.730Z,1.85
2023-02-27T06:09:38.856Z,1.86
2023-02-27T06:12:07.186Z,1.77
2023-02-27T06:14:35.263Z,1.75
2023-02-27T06:17:03.531Z,1.78
2023-02-27T06:19:31.763Z,1.71
2023-02-27T06:22:01.097Z,1.78
2023-02-27T06:24:29.194Z,1.67
2023-02-27T06:26:57.242Z,1.88
2023-02-27T06:29:25.467Z,1.89
2023-02-27T06:31:53.586Z,1.87
2023-02-27T06:34:21.610Z,1.89
2023-02-27T06:36:49.651Z,1.93
2023-02-27T06:39:18.983Z,1.92
2023-02-27T06:41:47.052Z,1.89
2023-02-27T06:44:15.319Z,1.93
2023-02-27T06:46:43.344Z,1.84
2023-02-27T06:49:11.441Z,1.88
2023-02-27T06:51:39.532Z,1.92
2023-02-27T06:54:08.051Z,1.99
2023-02-27T06:56:37.404Z,2.02
2023-02-27T06:59:05.877Z,2.02
2023-02-27T07:01:34.138Z,2.11
2023-02-27T07:04:02.211Z,1.88
2023-02-27T07:07:35.189Z,2.00
2023-02-27T07:09:20.522Z,2.09
2023-02-27T07:11:50.596Z,2.08
2023-02-27T07:14:18.620Z,2.13
2023-02-27T07:16:50.819Z,2.13
2023-02-27T07:19:18.900Z,2.13
2023-02-27T07:21:47.032Z,2.27
2023-02-27T07:24:15.043Z,2.20
2023-02-27T07:26:43.377Z,2.14
2023-02-27T07:29:14.753Z,2.22
2023-02-27T07:31:43.893Z,2.27
2023-02-27T07:34:13.750Z,2.15
2023-02-27T07:36:42.060Z,2.22
2023-02-27T07:39:10.675Z,2.32
2023-02-27T07:41:38.748Z,2.45
2023-02-27T07:44:08.586Z,2.46
2023-02-27T07:46:38.086Z,2.38
2023-02-27T07:49:06.193Z,2.44
2023-02-27T07:51:36.468Z,2.49
2023-02-27T07:54:08.086Z,2.50
2023-02-27T07:56:36.249Z,2.48
2023-02-27T07:59:04.609Z,2.43
2023-02-27T08:01:32.662Z,2.59
2023-02-27T08:04:02.332Z,2.63
2023-02-27T08:06:30.714Z,2.65
2023-02-27T08:08:58.786Z,2.78
2023-02-27T08:11:27.007Z,2.84
2023-02-27T08:14:00.432Z,2.89
2023-02-27T08:16:30.833Z,2.97
2023-02-27T08:18:59.718Z,2.95
2023-02-27T08:21:31.130Z,3.06
2023-02-27T08:23:59.593Z,3.10
2023-02-27T08:26:27.981Z,3.17
2023-02-27T08:28:56.111Z,3.18
2023-02-27T08:31:24.501Z,3.30
2023-02-27T08:34:00.975Z,3.27
2023-02-27T08:36:37.853Z,3.45
2023-02-27T08:39:06.696Z,3.49
2023-02-27T08:41:35.149Z,3.28
2023-02-27T08:44:03.242Z,3.31
2023-02-27T08:46:31.318Z,3.40
2023-02-27T08:48:59.378Z,3.60
2023-02-27T08:51:27.993Z,3.59
2023-02-27T08:53:59.012Z,3.53
2023-02-27T08:56:28.073Z,3.51
2023-02-27T08:58:56.905Z,3.73
2023-02-27T09:01:27.296Z,3.66
2023-02-27T09:03:55.739Z,3.81
2023-02-27T09:06:26.157Z,3.91
2023-02-27T09:08:54.481Z,4.01
2023-02-27T09:11:24.070Z,4.07
2023-02-27T09:13:52.820Z,4.25
2023-02-27T09:16:22.151Z,4.11
2023-02-27T09:18:50.946Z,4.30
2023-02-27T09:21:20.418Z,4.37
2023-02-27T09:23:48.429Z,4.52
2023-02-27T09:26:17.130Z,4.48
2023-02-27T09:28:46.534Z,4.39
2023-02-27T09:31:14.738Z,4.54
2023-02-27T09:33:42.865Z,4.62
2023-02-27T09:36:11.429Z,4.66
2023-02-27T09:38:41.388Z,4.85
2023-02-27T09:41:36.641Z,4.68
2023-02-27T09:44:08.248Z,4.55
2023-02-27T09:46:36.299Z,4.81
2023-02-27T09:49:05.535Z,4.94
2023-02-27T09:51:33.761Z,4.88
2023-02-27T09:54:03.402Z,5.07
2023-02-27T09:56:37.146Z,4.98
2023-02-27T09:59:20.578Z,4.91
2023-02-27T10:01:54.290Z,5.00
2023-02-27T10:04:40.621Z,5.01
2023-02-27T10:07:17.658Z,5.22
2023-02-27T10:10:00.464Z,5.21
2023-02-27T10:12:51.004Z,5.28
2023-02-27T10:15:27.156Z,5.22
2023-02-27T10:18:07.083Z,5.28
2023-02-27T10:20:44.777Z,5.58
2023-02-27T10:23:17.429Z,5.74
2023-02-27T10:25:48.715Z,5.77
2023-02-27T10:28:19.931Z,5.82
2023-02-27T10:30:51.789Z,5.78
2023-02-27T10:33:28.314Z,5.68
2023-02-27T10:35:57.765Z,5.67
2023-02-27T10:38:34.332Z,5.55
2023-02-27T10:41:04.472Z,5.48
2023-02-27T10:43:32.656Z,5.72
2023-02-27T10:46:08.191Z,5.78
2023-02-27T10:48:36.328Z,5.98
2023-02-27T10:51:27.135Z,6.03
2023-02-27T10:54:24.990Z,5.86
2023-02-27T10:56:56.680Z,5.99
2023-02-27T10:59:29.202Z,6.00
2023-02-27T11:02:02.148Z,6.07
2023-02-27T11:04:35.282Z,6.06
2023-02-27T11:07:08.897Z,6.23
2023-02-27T11:09:38.036Z,6.19
2023-02-27T11:12:23.629Z,6.31
2023-02-27T11:14:55.491Z,6.01
2023-02-27T11:17:29.790Z,6.18
2023-02-27T11:19:59.388Z,6.11
2023-02-27T11:22:30.079Z,6.20
2023-02-27T11:25:25.512Z,6.42
2023-02-27T11:28:12.454Z,6.64
2023-02-27T11:30:43.286Z,6.47
2023-02-27T11:33:20.887Z,6.55
2023-02-27T11:35:57.632Z,6.46
2023-02-27T11:38:29.926Z,6.55
2023-02-27T11:41:00.528Z,6.69
2023-02-27T11:43:31.838Z,6.76
2023-02-27T11:46:05.117Z,6.80
2023-02-27T11:48:54.943Z,6.78
2023-02-27T11:51:32.843Z,6.87
2023-02-27T11:54:19.123Z,6.75
2023-02-27T11:57:04.215Z,6.86
2023-02-27T11:59:44.498Z,6.82
2023-02-27T12:02:26.210Z,6.88
2023-02-27T12:05:01.437Z,6.90
2023-02-27T12:07:36.943Z,6.86
2023-02-27T12:10:14.374Z,6.95
2023-02-27T12:12:48.972Z,6.44
2023-02-27T12:15:26.958Z,6.58
2023-02-27T12:18:06.177Z,6.57
2023-02-27T12:20:45.509Z,6.78
2023-02-27T12:23:22.948Z,6.62
2023-02-27T12:25:57.024Z,6.75
2023-02-27T12:28:44.514Z,6.71
2023-02-27T12:31:36.942Z,6.64
2023-02-27T12:34:14.953Z,6.63
2023-02-27T12:36:44.351Z,6.82
2023-02-27T12:39:20.214Z,6.74
2023-02-27T12:42:36.240Z,6.76
2023-02-27T12:45:23.565Z,6.82
2023-02-27T12:48:04.328Z,6.89
2023-02-27T12:50:48.888Z,6.91
2023-02-27T12:53:39.982Z,6.99
2023-02-27T12:56:16.267Z,6.82
2023-02-27T12:58:55.737Z,6.68
2023-02-27T13:01:38.244Z,6.63
2023-02-27T13:04:19.119Z,6.61
2023-02-27T13:06:54.274Z,6.74
2023-02-27T13:09:35.429Z,6.90
2023-02-27T13:12:15.685Z,6.77
2023-02-27T13:14:50.509Z,6.64
2023-02-27T13:17:24.902Z,6.78
2023-02-27T13:19:57.582Z,6.59
2023-02-27T13:22:39.103Z,6.69
2023-02-27T13:25:15.440Z,6.47
2023-02-27T13:27:48.138Z,6.36
2023-02-27T13:30:25.450Z,6.36
2023-02-27T13:33:02.560Z,6.40
2023-02-27T13:35:42.321Z,6.40
2023-02-27T13:38:42.455Z,6.37
2023-02-27T13:41:39.179Z,6.31
2023-02-27T13:44:50.279Z,6.18
2023-02-27T13:47:49.997Z,6.15
2023-02-27T13:50:54.052Z,6.08
2023-02-27T13:53:24.474Z,6.20
2023-02-27T13:55:57.494Z,6.14
2023-02-27T13:58:27.060Z,6.06
2023-02-27T14:03:58.741Z,6.12
2023-02-27T14:06:31.757Z,6.36
2023-02-27T14:09:14.147Z,6.29
2023-02-27T14:11:54.911Z,6.43
2023-02-27T14:14:46.888Z,6.20
2023-02-27T14:17:37.086Z,6.20
2023-02-27T14:20:12.755Z,6.16
2023-02-27T14:23:19.651Z,6.18
2023-02-27T14:25:53.106Z,5.98
2023-02-27T14:28:30.803Z,6.15
2023-02-27T14:31:03.876Z,6.07
2023-02-27T14:33:42.853Z,6.23
2023-02-27T14:36:16.929Z,6.14
2023-02-27T14:38:45.401Z,6.25
2023-02-27T14:41:33.321Z,6.10
2023-02-27T14:44:02.145Z,5.84
2023-02-27T14:46:36.865Z,5.98
2023-02-27T14:49:08.382Z,6.02
2023-02-27T14:51:38.719Z,6.06
2023-02-27T14:54:14.066Z,5.96
2023-02-27T14:56:42.802Z,6.00
2023-02-27T14:59:24.942Z,5.93
2023-02-27T15:01:58.030Z,5.93
2023-02-27T15:04:29.526Z,5.96
2023-02-27T15:07:00.459Z,5.88
2023-02-27T15:09:35.759Z,5.85
2023-02-27T15:12:04.981Z,5.83
2023-02-27T15:14:37.742Z,5.83
2023-02-27T15:17:17.987Z,5.65
2023-02-27T15:19:52.034Z,5.73
2023-02-27T15:22:38.068Z,5.84
2023-02-27T15:25:08.443Z,5.79
2023-02-27T15:27:38.206Z,5.67
2023-02-27T15:30:08.739Z,5.72
2023-02-27T15:32:43.117Z,5.83
2023-02-27T15:35:19.899Z,5.69
2023-02-27T15:37:54.299Z,5.68
2023-02-27T15:40:26.835Z,5.65
2023-02-27T15:42:56.460Z,5.67
2023-02-27T15:45:28.904Z,5.69
2023-02-27T15:47:58.758Z,5.64
2023-02-27T15:50:32.658Z,5.67
2023-02-27T15:53:06.291Z,5.61
2023-02-27T15:55:38.357Z,5.68
2023-02-27T15:58:20.494Z,5.72
2023-02-27T16:00:48.865Z,5.78
2023-02-27T16:03:24.438Z,5.79
2023-02-27T16:05:54.059Z,5.71
2023-02-27T16:08:24.215Z,5.68
2023-02-27T16:10:52.970Z,5.76
2023-02-27T16:13:23.537Z,5.75
2023-02-27T16:16:03.482Z,5.51
2023-02-27T16:18:39.760Z,5.63
2023-02-27T16:21:14.350Z,5.64
2023-02-27T16:23:43.894Z,5.57
2023-02-27T16:26:33.045Z,5.46
2023-02-27T16:29:03.843Z,5.47
2023-02-27T16:31:35.633Z,5.39
2023-02-27T16:34:17.297Z,5.37
2023-02-27T16:36:56.624Z,5.34
2023-02-27T16:39:25.382Z,5.39
2023-02-27T16:41:54.263Z,5.38
2023-02-27T16:44:24.276Z,5.47
2023-02-27T16:46:53.013Z,5.52
2023-02-27T16:49:25.632Z,5.47
2023-02-27T16:51:53.835Z,5.29
2023-02-27T16:54:22.164Z,5.44
2023-02-27T16:56:51.553Z,5.49
2023-02-27T16:59:30.736Z,5.42
2023-02-27T17:02:01.104Z,5.28
2023-02-27T17:04:31.158Z,5.26
2023-02-27T17:07:05.348Z,5.30
2023-02-27T17:09:35.172Z,5.25
2023-02-27T17:12:03.248Z,5.36
2023-02-27T17:14:31.290Z,5.32
2023-02-27T17:16:59.418Z,5.29
2023-02-27T17:19:27.756Z,5.38
2023-02-27T17:21:57.304Z,5.31
2023-02-27T17:24:26.160Z,5.39
2023-02-27T17:26:54.265Z,5.34
2023-02-27T17:29:24.070Z,5.40
2023-02-27T17:31:52.905Z,5.41
2023-02-27T17:34:21.003Z,5.24
2023-02-27T17:36:50.361Z,5.43
2023-02-27T17:39:19.711Z,5.41
2023-02-27T17:41:48.904Z,5.43
2023-02-27T17:44:17.284Z,5.39
2023-02-27T17:46:45.659Z,5.43
2023-02-27T17:49:14.116Z,5.53
2023-02-27T17:51:42.221Z,5.40
2023-02-27T17:54:10.625Z,5.47
2023-02-27T17:56:40.368Z,5.48
2023-02-27T17:59:08.750Z,5.49
2023-02-27T18:01:36.888Z,5.29
2023-02-27T18:04:06.977Z,5.29
2023-02-27T18:06:35.022Z,5.32
2023-02-27T18:09:03.122Z,5.35
2023-02-27T18:11:31.254Z,5.37
2023-02-27T18:14:01.421Z,5.40
2023-02-27T18:16:29.980Z,5.36
2023-02-27T18:18:58.262Z,5.40
2023-02-27T18:21:26.332Z,5.45
2023-02-27T18:23:55.840Z,5.29
2023-02-27T18:26:30.294Z,5.26
2023-02-27T18:29:02.876Z,5.38
2023-02-27T18:31:33.663Z,5.42
2023-02-27T18:34:02.666Z,5.33
2023-02-27T18:36:32.215Z,5.46
2023-02-27T18:39:00.989Z,5.42
2023-02-27T18:41:30.099Z,5.38
2023-02-27T18:43:59.317Z,5.26
2023-02-27T18:46:29.452Z,5.32
2023-02-27T18:48:57.826Z,5.29
2023-02-27T18:51:26.838Z,5.38
2023-02-27T18:53:55.338Z,5.46
2023-02-27T18:56:26.500Z,5.27
2023-02-27T18:58:58.213Z,5.24
2023-02-27T19:01:31.087Z,5.18
2023-02-27T19:04:03.932Z,5.22
2023-02-27T19:06:34.164Z,5.19
2023-02-27T19:09:04.468Z,5.13
2023-02-27T19:11:33.936Z,5.24
2023-02-27T19:14:03.994Z,5.26
2023-02-27T19:16:34.871Z,5.19
2023-02-27T19:19:04.937Z,5.05
2023-02-27T19:21:33.788Z,5.17
2023-02-27T19:24:02.455Z,5.27
2023-02-27T19:26:33.454Z,5.22
2023-02-27T19:29:01.478Z,5.12
2023-02-27T19:31:29.767Z,5.10
2023-02-27T19:33:59.257Z,5.20
2023-02-27T19:36:30.449Z,5.13
2023-02-27T19:38:59.270Z,5.00
2023-02-27T19:41:27.757Z,5.08
2023-02-27T19:43:57.634Z,4.99
2023-02-27T19:46:28.926Z,5.15
2023-02-27T19:49:02.900Z,5.18
2023-02-27T19:51:31.455Z,5.02
2023-02-27T19:53:59.858Z,5.15
2023-02-27T19:56:30.163Z,5.17
2023-02-27T19:59:00.420Z,5.01
2023-02-27T20:01:31.431Z,4.87
2023-02-27T20:04:01.977Z,4.83
2023-02-27T20:06:33.226Z,4.68
2023-02-27T20:09:01.561Z,4.64
2023-02-27T20:11:31.486Z,4.61
2023-02-27T20:13:59.985Z,4.44
2023-02-27T20:16:30.576Z,4.52
2023-02-27T20:19:00.375Z,4.46
2023-02-27T20:21:29.534Z,4.41
2023-02-27T20:23:58.586Z,4.41
2023-02-27T20:26:30.712Z,4.36
2023-02-27T20:29:01.968Z,4.38
2023-02-27T20:31:33.415Z,4.44
2023-02-27T20:34:05.892Z,4.32
2023-02-27T20:36:35.438Z,4.38
2023-02-27T20:39:04.841Z,4.39
2023-02-27T20:41:34.569Z,4.41
2023-02-27T20:44:02.852Z,4.34
2023-02-27T20:46:31.861Z,4.18
2023-02-27T20:49:03.766Z,4.25
2023-02-27T20:51:36.085Z,4.14
2023-02-27T20:54:07.819Z,4.27
2023-02-27T20:56:40.537Z,4.20
2023-02-27T20:59:13.171Z,4.19
2023-02-27T21:01:41.615Z,4.13
2023-02-27T21:04:11.188Z,4.16
2023-02-27T21:06:39.960Z,4.11
2023-02-27T21:09:08.068Z,4.12
2023-02-27T21:11:36.140Z,4.13
2023-02-27T21:14:09.106Z,3.99
2023-02-27T21:16:37.689Z,4.03
2023-02-27T21:19:07.388Z,4.07
2023-02-27T21:21:38.142Z,4.11
2023-02-27T21:24:07.260Z,4.03
2023-02-27T21:26:38.777Z,4.04
2023-02-27T21:29:10.617Z,3.83
2023-02-27T21:31:40.923Z,3.96
2023-02-27T21:34:12.831Z,3.96
2023-02-27T21:36:45.630Z,4.10
2023-02-27T21:39:16.400Z,4.10
2023-02-27T21:41:45.344Z,3.98
2023-02-27T21:44:15.548Z,3.89
2023-02-27T21:46:45.168Z,3.92
2023-02-27T21:49:18.803Z,3.96
2023-02-27T21:51:48.247Z,3.99
2023-02-27T21:54:18.877Z,3.95
2023-02-27T21:56:49.092Z,3.97
2023-02-27T21:59:19.235Z,3.92
2023-02-27T22:01:48.504Z,3.97
2023-02-27T22:04:18.948Z,3.95
2023-02-27T22:06:49.634Z,3.94
2023-02-27T22:09:18.177Z,4.01
2023-02-27T22:11:46.408Z,3.98
2023-02-27T22:14:14.864Z,3.95
2023-02-27T22:16:43.361Z,3.68
2023-02-27T22:19:14.828Z,3.89
2023-02-27T22:21:42.884Z,3.99
2023-02-27T22:24:12.613Z,3.77
2023-02-27T22:26:41.563Z,3.86
2023-02-27T22:29:09.710Z,3.86
2023-02-27T22:31:39.529Z,3.86
2023-02-27T22:34:12.162Z,3.94
2023-02-27T22:36:42.088Z,3.92
2023-02-27T22:39:13.308Z,3.87
2023-02-27T22:41:43.516Z,3.84
2023-02-27T22:44:15.391Z,3.91
2023-02-27T22:46:46.291Z,3.89
2023-02-27T22:49:17.863Z,3.82
2023-02-27T22:51:46.620Z,3.72
2023-02-27T22:54:17.332Z,3.71
2023-02-27T22:56:45.762Z,3.61
2023-02-27T22:59:14.962Z,3.62
2023-02-27T23:01:43.108Z,3.60
2023-02-27T23:04:12.700Z,3.52
2023-02-27T23:06:42.943Z,3.46
2023-02-27T23:09:18.184Z,3.43
2023-02-27T23:11:47.151Z,3.52
2023-02-27T23:14:15.688Z,3.50
2023-02-27T23:16:45.456Z,3.43
2023-02-27T23:19:15.788Z,3.38
2023-02-27T23:21:44.110Z,3.36
2023-02-27T23:24:14.448Z,3.38
2023-02-27T23:26:47.180Z,3.40
2023-02-27T23:29:15.902Z,3.36
2023-02-27T23:31:44.480Z,3.27
2023-02-27T23:34:12.826Z,3.22
2023-02-27T23:36:41.277Z,3.36
2023-02-27T23:39:10.338Z,3.32
2023-02-27T23:41:38.388Z,3.33
2023-02-27T23:44:25.432Z,3.34
2023-02-27T23:46:53.569Z,3.19
2023-02-27T23:49:21.714Z,3.25
2023-02-27T23:51:49.721Z,3.28
2023-02-27T23:54:17.811Z,3.26
2023-02-27T23:56:48.505Z,3.27
2023-02-27T23:59:17.865Z,3.27
